DLH714 EDDM-RJTT
Flight info
| Callsign | DLH714 |
|---|---|
| Flight time | N/A |
| Altitude | 37000 |
| Route | KIRDI2E/08R KIRDI DCT BUWOQ DCT OBFEZ DCT STEIN DCT TEGRI DCT LUGEB DCT UDROS UN743 GAKSU UT310 SIN UW704 CRM UM11 TBN UG261 NOLGA DCT BARAD M747 SUBUT/N0479F390 T916 BALUN/K0887F390 T916 PIGAL M610 RULAD/K0893S1190 A343 POSOT B215 FKG/K0898S1250 W188 LIKMI W270 DKO W69 HUR B339 LADIX W34 VAPGU W100 ORAVA W201 UNSEK A326 DONVO G597 AGAVO/N0471F410 Y644 EGOBA Y697 LANAT Y71 XAC |
| Aircraft | A359/H-SADE2E3GHIJ1J2J3J4J5M1P2RWXYZ/LB1D1 |
Departure
| Time | 2026-05-01 10:52 |
|---|---|
| Airport | Munich Airport (EDDM) |
Arrival
| Time | N/A |
|---|---|
| Airport | Tokyo Haneda International Airport (RJTT) |
| Time | Latitude | Longitude | Altitude | Speed | Heading |
|---|---|---|---|---|---|
| 2026-05-01 09:16 | 48.35531 | 11.79723 | 1483 ft | 0 kts | 83° |
| 2026-05-01 10:34 | 48.35529 | 11.79698 | 1489 ft | 3 kts | 83° |
| 2026-05-01 10:34 | 48.35527 | 11.79666 | 1471 ft | 3 kts | 83° |
| 2026-05-01 10:35 | 48.35525 | 11.79608 | 1476 ft | 3 kts | 109° |
| 2026-05-01 10:35 | 48.35534 | 11.79584 | 1476 ft | 3 kts | 145° |
| 2026-05-01 10:35 | 48.35552 | 11.79573 | 1476 ft | 3 kts | 173° |
| 2026-05-01 10:35 | 48.35573 | 11.79569 | 1479 ft | 3 kts | 173° |
| 2026-05-01 10:36 | 48.35582 | 11.79568 | 1476 ft | 0 kts | 173° |
| 2026-05-01 10:43 | 48.35546 | 11.79575 | 1489 ft | 11 kts | 173° |
| 2026-05-01 10:43 | 48.35447 | 11.79592 | 1481 ft | 18 kts | 173° |
| 2026-05-01 10:44 | 48.35349 | 11.79609 | 1476 ft | 12 kts | 173° |
| 2026-05-01 10:44 | 48.35257 | 11.79624 | 1477 ft | 15 kts | 173° |
| 2026-05-01 10:44 | 48.35154 | 11.79642 | 1485 ft | 15 kts | 173° |
| 2026-05-01 10:44 | 48.35044 | 11.79661 | 1483 ft | 17 kts | 173° |
| 2026-05-01 10:45 | 48.34924 | 11.79682 | 1478 ft | 18 kts | 173° |
| 2026-05-01 10:45 | 48.34806 | 11.79687 | 1479 ft | 14 kts | 207° |
| 2026-05-01 10:45 | 48.34782 | 11.79589 | 1484 ft | 11 kts | 269° |
| 2026-05-01 10:45 | 48.34780 | 11.79457 | 1491 ft | 14 kts | 268° |
| 2026-05-01 10:46 | 48.34769 | 11.79294 | 1481 ft | 18 kts | 264° |
| 2026-05-01 10:46 | 48.34755 | 11.79084 | 1486 ft | 22 kts | 264° |
| 2026-05-01 10:46 | 48.34735 | 11.78833 | 1480 ft | 25 kts | 263° |
| 2026-05-01 10:46 | 48.34714 | 11.78567 | 1483 ft | 25 kts | 263° |
| 2026-05-01 10:47 | 48.34692 | 11.78298 | 1478 ft | 26 kts | 263° |
| 2026-05-01 10:47 | 48.34672 | 11.78025 | 1491 ft | 27 kts | 264° |
| 2026-05-01 10:47 | 48.34652 | 11.77760 | 1480 ft | 23 kts | 263° |
| 2026-05-01 10:47 | 48.34633 | 11.77517 | 1486 ft | 24 kts | 263° |
| 2026-05-01 10:48 | 48.34612 | 11.77262 | 1481 ft | 25 kts | 263° |
| 2026-05-01 10:48 | 48.34591 | 11.76996 | 1479 ft | 26 kts | 263° |
| 2026-05-01 10:48 | 48.34572 | 11.76721 | 1486 ft | 27 kts | 264° |
| 2026-05-01 10:48 | 48.34551 | 11.76434 | 1478 ft | 28 kts | 263° |
| 2026-05-01 10:49 | 48.34527 | 11.76140 | 1481 ft | 29 kts | 263° |
| 2026-05-01 10:49 | 48.34504 | 11.75836 | 1482 ft | 30 kts | 264° |
| 2026-05-01 10:49 | 48.34481 | 11.75527 | 1481 ft | 30 kts | 263° |
| 2026-05-01 10:49 | 48.34461 | 11.75258 | 1482 ft | 18 kts | 263° |
| 2026-05-01 10:50 | 48.34425 | 11.75083 | 1476 ft | 17 kts | 217° |
| 2026-05-01 10:50 | 48.34309 | 11.75079 | 1491 ft | 17 kts | 173° |
| 2026-05-01 10:50 | 48.34187 | 11.75102 | 1479 ft | 18 kts | 173° |
| 2026-05-01 10:50 | 48.34093 | 11.75198 | 1476 ft | 17 kts | 117° |
| 2026-05-01 10:51 | 48.34088 | 11.75363 | 1489 ft | 16 kts | 82° |
| 2026-05-01 10:51 | 48.34103 | 11.75549 | 1491 ft | 31 kts | 83° |
| 2026-05-01 10:51 | 48.34150 | 11.76172 | 1476 ft | 88 kts | 83° |
| 2026-05-01 10:51 | 48.34240 | 11.77339 | 1489 ft | 136 kts | 83° |
| 2026-05-01 10:52 | 48.34366 | 11.78882 | 1840 ft | 147 kts | 83° |
| 2026-05-01 10:52 | 48.34487 | 11.80332 | 2607 ft | 139 kts | 84° |
| 2026-05-01 10:52 | 48.34563 | 11.81298 | 2902 ft | 141 kts | 83° |
| 2026-05-01 10:52 | 48.34702 | 11.82751 | 3313 ft | 141 kts | 82° |
| 2026-05-01 10:53 | 48.34811 | 11.84298 | 3571 ft | 156 kts | 86° |
| 2026-05-01 10:53 | 48.34923 | 11.85998 | 3816 ft | 172 kts | 85° |
| 2026-05-01 10:53 | 48.35057 | 11.87855 | 4144 ft | 187 kts | 85° |
| 2026-05-01 10:53 | 48.35142 | 11.89080 | 4292 ft | 199 kts | 85° |
| 2026-05-01 10:54 | 48.35182 | 11.89634 | 4371 ft | 205 kts | 85° |
| 2026-05-01 10:54 | 48.35329 | 11.91837 | 4713 ft | 218 kts | 88° |
| 2026-05-01 10:54 | 48.35165 | 11.94109 | 5209 ft | 224 kts | 107° |
| 2026-05-01 10:54 | 48.34583 | 11.96385 | 5551 ft | 242 kts | 113° |
| 2026-05-01 10:55 | 48.33872 | 11.98722 | 6088 ft | 250 kts | 114° |
| 2026-05-01 10:55 | 48.33141 | 12.01123 | 6715 ft | 256 kts | 113° |
| 2026-05-01 10:55 | 48.32411 | 12.03564 | 7444 ft | 257 kts | 112° |
| 2026-05-01 10:55 | 48.31677 | 12.06036 | 8115 ft | 260 kts | 112° |
| 2026-05-01 10:56 | 48.30937 | 12.08530 | 8787 ft | 264 kts | 112° |
| 2026-05-01 10:56 | 48.30183 | 12.11078 | 9452 ft | 268 kts | 111° |
| 2026-05-01 10:56 | 48.29423 | 12.13657 | 10136 ft | 273 kts | 111° |
| 2026-05-01 10:56 | 48.28650 | 12.16276 | 10775 ft | 275 kts | 111° |
| 2026-05-01 10:57 | 48.27869 | 12.18911 | 11447 ft | 278 kts | 111° |
| 2026-05-01 10:57 | 48.27080 | 12.21574 | 12095 ft | 281 kts | 111° |
| 2026-05-01 10:57 | 48.26290 | 12.24242 | 12714 ft | 285 kts | 111° |
| 2026-05-01 10:57 | 48.26184 | 12.24601 | 12790 ft | 285 kts | 111° |
| 2026-05-01 10:58 | 48.26015 | 12.25172 | 12932 ft | 286 kts | 111° |
| 2026-05-01 10:58 | 48.25325 | 12.27496 | 13465 ft | 289 kts | 111° |
| 2026-05-01 10:58 | 48.24504 | 12.30261 | 14081 ft | 292 kts | 110° |
| 2026-05-01 10:58 | 48.24215 | 12.31236 | 14279 ft | 294 kts | 110° |
| 2026-05-01 10:59 | 48.23568 | 12.34142 | 14806 ft | 293 kts | 97° |
| 2026-05-01 10:59 | 48.23384 | 12.37230 | 15146 ft | 303 kts | 89° |
| 2026-05-01 10:59 | 48.23352 | 12.40458 | 15401 ft | 316 kts | 88° |
| 2026-05-01 10:59 | 48.23334 | 12.43484 | 15628 ft | 328 kts | 88° |
| 2026-05-01 11:00 | 48.23319 | 12.45400 | 15770 ft | 335 kts | 88° |
| 2026-05-01 11:00 | 48.23284 | 12.48955 | 16044 ft | 347 kts | 89° |
| 2026-05-01 11:00 | 48.23242 | 12.52644 | 16314 ft | 359 kts | 89° |
| 2026-05-01 11:00 | 48.23154 | 12.56414 | 16770 ft | 365 kts | 92° |
| 2026-05-01 11:01 | 48.22863 | 12.60218 | 17326 ft | 369 kts | 95° |
| 2026-05-01 11:01 | 48.22502 | 12.64051 | 17885 ft | 372 kts | 95° |
| 2026-05-01 11:01 | 48.22133 | 12.67914 | 18459 ft | 375 kts | 95° |
| 2026-05-01 11:01 | 48.21762 | 12.71795 | 19003 ft | 378 kts | 95° |
| 2026-05-01 11:02 | 48.21414 | 12.75443 | 19471 ft | 381 kts | 95° |
| 2026-05-01 11:02 | 48.21087 | 12.78878 | 19911 ft | 383 kts | 95° |
| 2026-05-01 11:03 | 48.20823 | 12.82866 | 20438 ft | 384 kts | 89° |
| 2026-05-01 11:03 | 48.20762 | 12.86878 | 20947 ft | 386 kts | 87° |
| 2026-05-01 11:03 | 48.20799 | 12.90920 | 21469 ft | 389 kts | 85° |
| 2026-05-01 11:03 | 48.20880 | 12.94976 | 22038 ft | 390 kts | 85° |
| 2026-05-01 11:04 | 48.20974 | 12.99049 | 22607 ft | 391 kts | 84° |
| 2026-05-01 11:04 | 48.21061 | 13.03143 | 23096 ft | 395 kts | 85° |
| 2026-05-01 11:04 | 48.21137 | 13.07270 | 23582 ft | 398 kts | 85° |
| 2026-05-01 11:04 | 48.21203 | 13.11433 | 24083 ft | 401 kts | 85° |
| 2026-05-01 11:05 | 48.21262 | 13.15614 | 24496 ft | 403 kts | 85° |
| 2026-05-01 11:05 | 48.21316 | 13.19834 | 24907 ft | 406 kts | 85° |
| 2026-05-01 11:05 | 48.21367 | 13.24081 | 25324 ft | 409 kts | 85° |
| 2026-05-01 11:05 | 48.21417 | 13.28355 | 25741 ft | 411 kts | 85° |
| 2026-05-01 11:06 | 48.21466 | 13.32649 | 26148 ft | 414 kts | 85° |
| 2026-05-01 11:06 | 48.21515 | 13.36980 | 26573 ft | 416 kts | 85° |
| 2026-05-01 11:06 | 48.21561 | 13.41321 | 27086 ft | 416 kts | 85° |
| 2026-05-01 11:07 | 48.21651 | 13.50041 | 27887 ft | 422 kts | 85° |
| 2026-05-01 11:07 | 48.21695 | 13.54451 | 28269 ft | 424 kts | 85° |
| 2026-05-01 11:07 | 48.21736 | 13.58830 | 28619 ft | 427 kts | 85° |
| 2026-05-01 11:07 | 48.21778 | 13.63351 | 28996 ft | 429 kts | 85° |
| 2026-05-01 11:08 | 48.21816 | 13.67785 | 29357 ft | 432 kts | 85° |
| 2026-05-01 11:08 | 48.21853 | 13.72291 | 29713 ft | 434 kts | 85° |
| 2026-05-01 11:08 | 48.21923 | 13.81397 | 30422 ft | 439 kts | 85° |
| 2026-05-01 11:09 | 48.21954 | 13.85983 | 30810 ft | 439 kts | 85° |
| 2026-05-01 11:09 | 48.21984 | 13.90561 | 31123 ft | 440 kts | 85° |
| 2026-05-01 11:09 | 48.21873 | 13.95177 | 31353 ft | 446 kts | 91° |
| 2026-05-01 11:10 | 48.20424 | 14.04355 | 31841 ft | 461 kts | 105° |
| 2026-05-01 11:10 | 48.19227 | 14.08835 | 32061 ft | 464 kts | 107° |
| 2026-05-01 11:10 | 48.17949 | 14.13284 | 32293 ft | 467 kts | 108° |
| 2026-05-01 11:10 | 48.16626 | 14.17745 | 32516 ft | 469 kts | 108° |
| 2026-05-01 11:11 | 48.15290 | 14.22204 | 32822 ft | 470 kts | 108° |
| 2026-05-01 11:11 | 48.13958 | 14.26643 | 33275 ft | 466 kts | 108° |
| 2026-05-01 11:11 | 48.12636 | 14.31067 | 33654 ft | 464 kts | 108° |
| 2026-05-01 11:11 | 48.11328 | 14.35469 | 33953 ft | 463 kts | 108° |
| 2026-05-01 11:12 | 48.10024 | 14.39876 | 34242 ft | 463 kts | 108° |
| 2026-05-01 11:12 | 48.08720 | 14.44284 | 34502 ft | 462 kts | 108° |
| 2026-05-01 11:12 | 48.07419 | 14.48679 | 34729 ft | 462 kts | 108° |
| 2026-05-01 11:12 | 48.06119 | 14.53064 | 34920 ft | 463 kts | 108° |
| 2026-05-01 11:13 | 48.04813 | 14.57463 | 35109 ft | 463 kts | 108° |
| 2026-05-01 11:13 | 48.03505 | 14.61854 | 35352 ft | 463 kts | 108° |
| 2026-05-01 11:13 | 48.02197 | 14.66234 | 35608 ft | 461 kts | 108° |
| 2026-05-01 11:13 | 48.00888 | 14.70607 | 35802 ft | 461 kts | 108° |
| 2026-05-01 11:14 | 47.99577 | 14.74987 | 35953 ft | 462 kts | 108° |
| 2026-05-01 11:14 | 47.98263 | 14.79365 | 36096 ft | 462 kts | 108° |
| 2026-05-01 11:14 | 47.96950 | 14.83733 | 36269 ft | 462 kts | 108° |
| 2026-05-01 11:14 | 47.95632 | 14.88111 | 36445 ft | 462 kts | 108° |
| 2026-05-01 11:15 | 47.94314 | 14.92482 | 36590 ft | 463 kts | 108° |
| 2026-05-01 11:15 | 47.92992 | 14.96857 | 36747 ft | 463 kts | 108° |
| 2026-05-01 11:15 | 47.91669 | 15.01228 | 36890 ft | 464 kts | 108° |
| 2026-05-01 11:15 | 47.90340 | 15.05609 | 36900 ft | 463 kts | 108° |
| 2026-05-01 11:16 | 47.87680 | 15.14350 | 36905 ft | 463 kts | 108° |
| 2026-05-01 11:16 | 47.85033 | 15.23028 | 36904 ft | 463 kts | 108° |
| 2026-05-01 11:17 | 47.82361 | 15.31752 | 36902 ft | 463 kts | 108° |
| 2026-05-01 11:17 | 47.79703 | 15.40479 | 36908 ft | 463 kts | 108° |
| 2026-05-01 11:18 | 47.77066 | 15.49210 | 36905 ft | 463 kts | 108° |
| 2026-05-01 11:18 | 47.74424 | 15.57946 | 36897 ft | 464 kts | 108° |
| 2026-05-01 11:19 | 47.71765 | 15.66680 | 36888 ft | 464 kts | 108° |
| 2026-05-01 11:19 | 47.69101 | 15.75401 | 36891 ft | 463 kts | 108° |
| 2026-05-01 11:20 | 47.66433 | 15.84095 | 36893 ft | 464 kts | 108° |
| 2026-05-01 11:20 | 47.63751 | 15.92798 | 36897 ft | 464 kts | 108° |
| 2026-05-01 11:21 | 47.61067 | 16.01488 | 36885 ft | 464 kts | 108° |
| 2026-05-01 11:21 | 47.58375 | 16.10179 | 36919 ft | 464 kts | 108° |
| 2026-05-01 11:22 | 47.55677 | 16.18852 | 36889 ft | 464 kts | 108° |
| 2026-05-01 11:22 | 47.52974 | 16.27511 | 36886 ft | 464 kts | 108° |
| 2026-05-01 11:23 | 47.50261 | 16.36174 | 36887 ft | 464 kts | 108° |
| 2026-05-01 11:23 | 47.47544 | 16.44822 | 36886 ft | 464 kts | 108° |
| 2026-05-01 11:24 | 47.44820 | 16.53460 | 36896 ft | 464 kts | 108° |
| 2026-05-01 11:25 | 47.41202 | 16.66606 | 36879 ft | 458 kts | 103° |
| 2026-05-01 11:25 | 47.38061 | 16.79924 | 36873 ft | 458 kts | 102° |
| 2026-05-01 11:26 | 47.34927 | 16.93241 | 36875 ft | 458 kts | 102° |
| 2026-05-01 11:27 | 47.32819 | 17.02116 | 36876 ft | 459 kts | 103° |
| 2026-05-01 11:27 | 47.30703 | 17.10980 | 36875 ft | 459 kts | 103° |
| 2026-05-01 11:28 | 47.28578 | 17.19840 | 36873 ft | 459 kts | 103° |
| 2026-05-01 11:28 | 47.26461 | 17.28638 | 36875 ft | 459 kts | 103° |
| 2026-05-01 11:29 | 47.23251 | 17.41911 | 36875 ft | 459 kts | 103° |
| 2026-05-01 11:30 | 47.20029 | 17.55158 | 36874 ft | 459 kts | 103° |
| 2026-05-01 11:30 | 47.17869 | 17.63990 | 36875 ft | 458 kts | 103° |
| 2026-05-01 11:31 | 47.15707 | 17.72799 | 36872 ft | 458 kts | 103° |
| 2026-05-01 11:31 | 47.13537 | 17.81601 | 36866 ft | 458 kts | 103° |
| 2026-05-01 11:32 | 47.11362 | 17.90395 | 36863 ft | 458 kts | 103° |
| 2026-05-01 11:32 | 47.09177 | 17.99193 | 36872 ft | 458 kts | 103° |
| 2026-05-01 11:33 | 47.06989 | 18.07966 | 36862 ft | 458 kts | 103° |
| 2026-05-01 11:33 | 47.04791 | 18.16749 | 36863 ft | 458 kts | 103° |
| 2026-05-01 11:34 | 47.02588 | 18.25519 | 36858 ft | 458 kts | 103° |
| 2026-05-01 11:34 | 47.00379 | 18.34276 | 36898 ft | 458 kts | 103° |
| 2026-05-01 11:35 | 46.98161 | 18.43030 | 36857 ft | 457 kts | 103° |
| 2026-05-01 11:35 | 46.95943 | 18.51754 | 36853 ft | 457 kts | 103° |
| 2026-05-01 11:36 | 46.93720 | 18.60470 | 36861 ft | 457 kts | 103° |
| 2026-05-01 11:36 | 46.91489 | 18.69182 | 36856 ft | 457 kts | 103° |
| 2026-05-01 11:37 | 46.89251 | 18.77889 | 36859 ft | 457 kts | 103° |
| 2026-05-01 11:37 | 46.87007 | 18.86581 | 36854 ft | 457 kts | 104° |
| 2026-05-01 11:38 | 46.84755 | 18.95273 | 36860 ft | 457 kts | 104° |
| 2026-05-01 11:38 | 46.82513 | 19.03898 | 36854 ft | 457 kts | 104° |
| 2026-05-01 11:39 | 46.80250 | 19.12566 | 36863 ft | 457 kts | 104° |
| 2026-05-01 11:39 | 46.77982 | 19.21227 | 36853 ft | 457 kts | 104° |
| 2026-05-01 11:40 | 46.75704 | 19.29891 | 37006 ft | 458 kts | 104° |
| 2026-05-01 11:40 | 46.74557 | 19.34243 | 37138 ft | 459 kts | 104° |
| 2026-05-01 11:40 | 46.73412 | 19.38579 | 37234 ft | 460 kts | 104° |
| 2026-05-01 11:41 | 46.71477 | 19.45888 | 37363 ft | 463 kts | 105° |
| 2026-05-01 11:41 | 46.69140 | 19.54698 | 37356 ft | 469 kts | 105° |
| 2026-05-01 11:42 | 46.66789 | 19.63504 | 37353 ft | 469 kts | 105° |
| 2026-05-01 11:42 | 46.64418 | 19.72347 | 37351 ft | 469 kts | 105° |
| 2026-05-01 11:43 | 46.62042 | 19.81184 | 37372 ft | 469 kts | 105° |
| 2026-05-01 11:43 | 46.59652 | 19.90047 | 37349 ft | 472 kts | 105° |
| 2026-05-01 11:44 | 46.56044 | 20.03363 | 37346 ft | 472 kts | 105° |
| 2026-05-01 11:44 | 46.53629 | 20.12228 | 37344 ft | 472 kts | 105° |
| 2026-05-01 11:45 | 46.51207 | 20.21088 | 37344 ft | 472 kts | 106° |
| 2026-05-01 11:45 | 46.48776 | 20.29951 | 37335 ft | 472 kts | 106° |
| 2026-05-01 11:46 | 46.46341 | 20.38795 | 37336 ft | 472 kts | 106° |
| 2026-05-01 11:46 | 46.43898 | 20.47633 | 37335 ft | 472 kts | 106° |
| 2026-05-01 11:47 | 46.41449 | 20.56468 | 37335 ft | 474 kts | 106° |
| 2026-05-01 11:47 | 46.38977 | 20.65354 | 37330 ft | 476 kts | 107° |
| 2026-05-01 11:48 | 46.36495 | 20.74231 | 37328 ft | 476 kts | 107° |
| 2026-05-01 11:48 | 46.34009 | 20.83093 | 37323 ft | 476 kts | 107° |
| 2026-05-01 11:49 | 46.31509 | 20.91976 | 37330 ft | 477 kts | 107° |
| 2026-05-01 11:49 | 46.29013 | 21.00813 | 37319 ft | 479 kts | 107° |
| 2026-05-01 11:50 | 46.26491 | 21.09707 | 37318 ft | 479 kts | 107° |
| 2026-05-01 11:50 | 46.23915 | 21.18589 | 37319 ft | 479 kts | 108° |
| 2026-05-01 11:51 | 46.21265 | 21.27442 | 37320 ft | 481 kts | 108° |
| 2026-05-01 11:51 | 46.18601 | 21.36321 | 37329 ft | 483 kts | 109° |
| 2026-05-01 11:52 | 46.15932 | 21.45227 | 37328 ft | 483 kts | 109° |
| 2026-05-01 11:52 | 46.13261 | 21.54124 | 37306 ft | 484 kts | 109° |
| 2026-05-01 11:53 | 46.10581 | 21.63027 | 37303 ft | 485 kts | 109° |
| 2026-05-01 11:53 | 46.07881 | 21.71964 | 37299 ft | 487 kts | 109° |
| 2026-05-01 11:54 | 46.05168 | 21.80904 | 37290 ft | 487 kts | 109° |
| 2026-05-01 11:54 | 46.02448 | 21.89835 | 37295 ft | 487 kts | 109° |
| 2026-05-01 11:55 | 45.99719 | 21.98769 | 37293 ft | 489 kts | 110° |
| 2026-05-01 11:55 | 45.96976 | 22.07719 | 37288 ft | 489 kts | 110° |
| 2026-05-01 11:56 | 45.94225 | 22.16660 | 37287 ft | 489 kts | 110° |
| 2026-05-01 11:56 | 45.91468 | 22.25590 | 37307 ft | 489 kts | 110° |
| 2026-05-01 11:57 | 45.88697 | 22.34534 | 37285 ft | 491 kts | 110° |
| 2026-05-01 11:57 | 45.85914 | 22.43485 | 37282 ft | 491 kts | 110° |
| 2026-05-01 11:58 | 45.83123 | 22.52428 | 37279 ft | 491 kts | 110° |
| 2026-05-01 11:59 | 45.78922 | 22.65832 | 37279 ft | 493 kts | 111° |
| 2026-05-01 11:59 | 45.76122 | 22.74725 | 37275 ft | 493 kts | 111° |
| 2026-05-01 12:00 | 45.71863 | 22.88199 | 37277 ft | 493 kts | 111° |
| 2026-05-01 12:01 | 45.67621 | 23.01549 | 37272 ft | 495 kts | 111° |
| 2026-05-01 12:01 | 45.64761 | 23.10506 | 37272 ft | 496 kts | 111° |
| 2026-05-01 12:02 | 45.61895 | 23.19454 | 37264 ft | 496 kts | 111° |
| 2026-05-01 12:02 | 45.59018 | 23.28408 | 37267 ft | 496 kts | 112° |
| 2026-05-01 12:03 | 45.56130 | 23.37364 | 37263 ft | 498 kts | 112° |
| 2026-05-01 12:03 | 45.53224 | 23.46342 | 37265 ft | 499 kts | 112° |
| 2026-05-01 12:04 | 45.50309 | 23.55316 | 37265 ft | 499 kts | 112° |
| 2026-05-01 12:04 | 45.47387 | 23.64285 | 37267 ft | 499 kts | 112° |
| 2026-05-01 12:05 | 45.44456 | 23.73250 | 37265 ft | 499 kts | 112° |
| 2026-05-01 12:05 | 45.40050 | 23.86666 | 37266 ft | 499 kts | 112° |
| 2026-05-01 12:06 | 45.37104 | 23.95600 | 37271 ft | 499 kts | 113° |
| 2026-05-01 12:06 | 45.34146 | 24.04540 | 37267 ft | 500 kts | 113° |
| 2026-05-01 12:07 | 45.31177 | 24.13480 | 37267 ft | 500 kts | 113° |
| 2026-05-01 12:07 | 45.28200 | 24.22417 | 37269 ft | 500 kts | 113° |
| 2026-05-01 12:08 | 45.25214 | 24.31353 | 37266 ft | 501 kts | 114° |
| 2026-05-01 12:08 | 45.22215 | 24.40293 | 37257 ft | 502 kts | 114° |
| 2026-05-01 12:09 | 45.19208 | 24.49226 | 37273 ft | 502 kts | 114° |
| 2026-05-01 12:09 | 45.16190 | 24.58162 | 37279 ft | 502 kts | 114° |
| 2026-05-01 12:10 | 45.11649 | 24.71553 | 37278 ft | 503 kts | 114° |
| 2026-05-01 12:11 | 45.07084 | 24.84947 | 37278 ft | 504 kts | 114° |
| 2026-05-01 12:11 | 45.04050 | 24.93810 | 37282 ft | 504 kts | 114° |
| 2026-05-01 12:12 | 45.00984 | 25.02742 | 37281 ft | 506 kts | 114° |
| 2026-05-01 12:12 | 44.97905 | 25.11678 | 37284 ft | 506 kts | 115° |
| 2026-05-01 12:13 | 44.94819 | 25.20604 | 37284 ft | 506 kts | 115° |
| 2026-05-01 12:13 | 44.91727 | 25.29520 | 37283 ft | 507 kts | 115° |
| 2026-05-01 12:14 | 44.88616 | 25.38459 | 37289 ft | 507 kts | 115° |
| 2026-05-01 12:14 | 44.85502 | 25.47375 | 37292 ft | 507 kts | 115° |
| 2026-05-01 12:15 | 44.82378 | 25.56295 | 37293 ft | 507 kts | 115° |
| 2026-05-01 12:15 | 44.79248 | 25.65200 | 37295 ft | 508 kts | 115° |
| 2026-05-01 12:16 | 44.76108 | 25.74104 | 37304 ft | 508 kts | 116° |
| 2026-05-01 12:16 | 44.72962 | 25.82994 | 37309 ft | 508 kts | 116° |
| 2026-05-01 12:17 | 44.69810 | 25.91877 | 37313 ft | 508 kts | 116° |
| 2026-05-01 12:17 | 44.66647 | 26.00757 | 37318 ft | 509 kts | 116° |
| 2026-05-01 12:18 | 44.63473 | 26.09641 | 37320 ft | 509 kts | 116° |
| 2026-05-01 12:18 | 44.60293 | 26.18511 | 37320 ft | 509 kts | 116° |
| 2026-05-01 12:19 | 44.57107 | 26.27371 | 37306 ft | 509 kts | 116° |
| 2026-05-01 12:19 | 44.53907 | 26.36241 | 37306 ft | 509 kts | 116° |
| 2026-05-01 12:20 | 44.50703 | 26.45092 | 37306 ft | 509 kts | 116° |
| 2026-05-01 12:20 | 44.47511 | 26.53881 | 37303 ft | 510 kts | 117° |
| 2026-05-01 12:21 | 44.44268 | 26.62786 | 37300 ft | 510 kts | 117° |
| 2026-05-01 12:21 | 44.41059 | 26.71567 | 37300 ft | 510 kts | 117° |
| 2026-05-01 12:22 | 44.38349 | 26.78959 | 37295 ft | 510 kts | 117° |
| 2026-05-01 12:22 | 44.34580 | 26.89207 | 37295 ft | 510 kts | 117° |
| 2026-05-01 12:23 | 44.31331 | 26.98014 | 37295 ft | 510 kts | 117° |
| 2026-05-01 12:23 | 44.28075 | 27.06808 | 37295 ft | 510 kts | 117° |
| 2026-05-01 12:24 | 44.24812 | 27.15598 | 37289 ft | 511 kts | 118° |
| 2026-05-01 12:24 | 44.21533 | 27.24399 | 37292 ft | 511 kts | 118° |
| 2026-05-01 12:25 | 44.16605 | 27.37575 | 37287 ft | 512 kts | 118° |
| 2026-05-01 12:26 | 44.13303 | 27.46368 | 37284 ft | 512 kts | 118° |
| 2026-05-01 12:26 | 44.08339 | 27.59537 | 37279 ft | 512 kts | 118° |
| 2026-05-01 12:27 | 44.03357 | 27.72689 | 37277 ft | 513 kts | 118° |
| 2026-05-01 12:28 | 43.98920 | 27.84352 | 37273 ft | 513 kts | 118° |
| 2026-05-01 12:29 | 43.93906 | 27.97473 | 37271 ft | 513 kts | 119° |
| 2026-05-01 12:29 | 43.88873 | 28.10583 | 37269 ft | 513 kts | 119° |
| 2026-05-01 12:30 | 43.83823 | 28.23676 | 37268 ft | 513 kts | 119° |
| 2026-05-01 12:31 | 43.80451 | 28.32383 | 37265 ft | 514 kts | 119° |
| 2026-05-01 12:31 | 43.77063 | 28.41106 | 37259 ft | 514 kts | 119° |
| 2026-05-01 12:32 | 43.73674 | 28.49807 | 37260 ft | 514 kts | 119° |
| 2026-05-01 12:32 | 43.68090 | 28.62424 | 37265 ft | 513 kts | 125° |
| 2026-05-01 12:33 | 43.65253 | 28.68342 | 37262 ft | 513 kts | 125° |
| 2026-05-01 12:33 | 43.64416 | 28.70098 | 37262 ft | 513 kts | 125° |
| 2026-05-01 12:34 | 43.60528 | 28.78353 | 37261 ft | 513 kts | 124° |
| 2026-05-01 12:34 | 43.56669 | 28.86649 | 37262 ft | 514 kts | 124° |
| 2026-05-01 12:35 | 43.52816 | 28.94939 | 37257 ft | 514 kts | 124° |
| 2026-05-01 12:35 | 43.48980 | 29.03165 | 37257 ft | 514 kts | 124° |
| 2026-05-01 12:36 | 43.45112 | 29.11433 | 37250 ft | 514 kts | 125° |
| 2026-05-01 12:36 | 43.41232 | 29.19700 | 37256 ft | 514 kts | 125° |
| 2026-05-01 12:37 | 43.37349 | 29.27948 | 37254 ft | 514 kts | 125° |
| 2026-05-01 12:37 | 43.33456 | 29.36196 | 37252 ft | 514 kts | 125° |
| 2026-05-01 12:38 | 43.29561 | 29.44425 | 37248 ft | 514 kts | 126° |
| 2026-05-01 12:38 | 43.25653 | 29.52659 | 37244 ft | 515 kts | 126° |
| 2026-05-01 12:39 | 43.21741 | 29.60878 | 37239 ft | 514 kts | 126° |
| 2026-05-01 12:39 | 43.17825 | 29.69082 | 37237 ft | 514 kts | 126° |
| 2026-05-01 12:40 | 43.13906 | 29.77270 | 37236 ft | 514 kts | 126° |
| 2026-05-01 12:40 | 43.09976 | 29.85458 | 37231 ft | 514 kts | 126° |
| 2026-05-01 12:41 | 43.06042 | 29.93633 | 37227 ft | 515 kts | 126° |
| 2026-05-01 12:41 | 43.02100 | 30.01801 | 37228 ft | 515 kts | 127° |
| 2026-05-01 12:42 | 42.98150 | 30.09962 | 37227 ft | 515 kts | 127° |
| 2026-05-01 12:42 | 42.94196 | 30.18111 | 37213 ft | 515 kts | 127° |
| 2026-05-01 12:43 | 42.90238 | 30.26244 | 37220 ft | 514 kts | 127° |
| 2026-05-01 12:43 | 42.86276 | 30.34365 | 37214 ft | 514 kts | 127° |
| 2026-05-01 12:44 | 42.82307 | 30.42476 | 37212 ft | 514 kts | 127° |
| 2026-05-01 12:45 | 42.74560 | 30.58850 | 37199 ft | 518 kts | 119° |
| 2026-05-01 12:45 | 42.72180 | 30.68148 | 37217 ft | 523 kts | 109° |
| 2026-05-01 12:46 | 42.70286 | 30.77717 | 37201 ft | 525 kts | 108° |
| 2026-05-01 12:46 | 42.68450 | 30.87321 | 37202 ft | 525 kts | 108° |
| 2026-05-01 12:47 | 42.66597 | 30.96854 | 37198 ft | 525 kts | 108° |
| 2026-05-01 12:47 | 42.64704 | 31.06432 | 37173 ft | 525 kts | 109° |
| 2026-05-01 12:48 | 42.62797 | 31.15998 | 37191 ft | 525 kts | 109° |
| 2026-05-01 12:48 | 42.60881 | 31.25569 | 37187 ft | 525 kts | 109° |
| 2026-05-01 12:49 | 42.58957 | 31.35139 | 37185 ft | 525 kts | 109° |
| 2026-05-01 12:49 | 42.57027 | 31.44695 | 37183 ft | 525 kts | 109° |
| 2026-05-01 12:50 | 42.55089 | 31.54245 | 37178 ft | 525 kts | 109° |
| 2026-05-01 12:50 | 42.53144 | 31.63786 | 37173 ft | 525 kts | 109° |
| 2026-05-01 12:51 | 42.51193 | 31.73312 | 37152 ft | 525 kts | 110° |
| 2026-05-01 12:52 | 42.48247 | 31.87609 | 37167 ft | 525 kts | 110° |
| 2026-05-01 12:52 | 42.45287 | 32.01874 | 37165 ft | 525 kts | 110° |
| 2026-05-01 12:53 | 42.42322 | 32.16065 | 37154 ft | 524 kts | 110° |
| 2026-05-01 12:54 | 42.40330 | 32.25548 | 37170 ft | 524 kts | 110° |
| 2026-05-01 12:54 | 42.37327 | 32.39758 | 37152 ft | 524 kts | 111° |
| 2026-05-01 12:55 | 42.34310 | 32.53940 | 37155 ft | 523 kts | 111° |
| 2026-05-01 12:56 | 42.32780 | 32.63583 | 37151 ft | 527 kts | 104° |
| 2026-05-01 12:56 | 42.31636 | 32.73380 | 37150 ft | 528 kts | 103° |
| 2026-05-01 12:57 | 42.30544 | 32.83190 | 37150 ft | 528 kts | 103° |
| 2026-05-01 12:57 | 42.28877 | 32.97896 | 37149 ft | 528 kts | 103° |
| 2026-05-01 12:58 | 42.27744 | 33.07687 | 37128 ft | 528 kts | 103° |
| 2026-05-01 12:59 | 42.26030 | 33.22340 | 37145 ft | 526 kts | 103° |
| 2026-05-01 12:59 | 42.24300 | 33.36960 | 37143 ft | 526 kts | 104° |
| 2026-05-01 13:00 | 42.22550 | 33.51585 | 37146 ft | 527 kts | 104° |
| 2026-05-01 13:01 | 42.20780 | 33.66224 | 37140 ft | 527 kts | 104° |
| 2026-05-01 13:02 | 42.18990 | 33.80861 | 37130 ft | 527 kts | 104° |
| 2026-05-01 13:07 | 42.09079 | 34.88594 | 37113 ft | 530 kts | 98° |
| 2026-05-01 13:08 | 42.08618 | 34.98485 | 37096 ft | 528 kts | 98° |
| 2026-05-01 13:08 | 42.08153 | 35.08331 | 37104 ft | 527 kts | 98° |
| 2026-05-01 13:09 | 42.07679 | 35.18174 | 37093 ft | 527 kts | 98° |
| 2026-05-01 13:09 | 42.07195 | 35.28010 | 37095 ft | 527 kts | 98° |
| 2026-05-01 13:10 | 42.06708 | 35.37767 | 37091 ft | 525 kts | 98° |
| 2026-05-01 13:10 | 42.06210 | 35.47557 | 37075 ft | 524 kts | 98° |
| 2026-05-01 13:11 | 42.05704 | 35.57340 | 37082 ft | 524 kts | 98° |
| 2026-05-01 13:11 | 42.05189 | 35.67125 | 37080 ft | 524 kts | 98° |
| 2026-05-01 13:12 | 42.04667 | 35.76902 | 37074 ft | 524 kts | 98° |
| 2026-05-01 13:12 | 42.04135 | 35.86684 | 37065 ft | 524 kts | 98° |
| 2026-05-01 13:13 | 42.03595 | 35.96477 | 37075 ft | 525 kts | 98° |
| 2026-05-01 13:13 | 42.03048 | 36.06251 | 37072 ft | 524 kts | 99° |
| 2026-05-01 13:14 | 42.02492 | 36.16030 | 37066 ft | 524 kts | 98° |
| 2026-05-01 13:14 | 42.02023 | 36.24162 | 37058 ft | 524 kts | 98° |
| 2026-05-01 13:15 | 42.01451 | 36.33941 | 37062 ft | 524 kts | 98° |
| 2026-05-01 13:15 | 42.00872 | 36.43699 | 37062 ft | 524 kts | 99° |
| 2026-05-01 13:16 | 42.00283 | 36.53494 | 37054 ft | 525 kts | 99° |
| 2026-05-01 13:16 | 41.99687 | 36.63268 | 37044 ft | 525 kts | 99° |
| 2026-05-01 13:17 | 41.98469 | 36.82816 | 37050 ft | 525 kts | 99° |
| 2026-05-01 13:18 | 41.97534 | 36.97468 | 37046 ft | 524 kts | 99° |
| 2026-05-01 13:18 | 41.96901 | 37.07225 | 37039 ft | 524 kts | 99° |
| 2026-05-01 13:19 | 41.96260 | 37.16973 | 37038 ft | 524 kts | 99° |
| 2026-05-01 13:20 | 41.95284 | 37.31584 | 37032 ft | 523 kts | 99° |
| 2026-05-01 13:20 | 41.94625 | 37.41293 | 37027 ft | 522 kts | 99° |
| 2026-05-01 13:21 | 41.93621 | 37.55840 | 37022 ft | 521 kts | 99° |
| 2026-05-01 13:21 | 41.92942 | 37.65529 | 37003 ft | 521 kts | 99° |
| 2026-05-01 13:22 | 41.92256 | 37.75211 | 37017 ft | 520 kts | 99° |
| 2026-05-01 13:22 | 41.91563 | 37.84871 | 37019 ft | 520 kts | 99° |
| 2026-05-01 13:23 | 41.90863 | 37.94519 | 37018 ft | 519 kts | 99° |
| 2026-05-01 13:23 | 41.90159 | 38.04100 | 36990 ft | 519 kts | 99° |
| 2026-05-01 13:24 | 41.89445 | 38.13716 | 37009 ft | 518 kts | 99° |
| 2026-05-01 13:25 | 41.88357 | 38.28141 | 37007 ft | 517 kts | 100° |
| 2026-05-01 13:25 | 41.87624 | 38.37739 | 37011 ft | 517 kts | 100° |
| 2026-05-01 13:26 | 41.86881 | 38.47345 | 37007 ft | 517 kts | 100° |
| 2026-05-01 13:26 | 41.86132 | 38.56936 | 37014 ft | 517 kts | 100° |
| 2026-05-01 13:27 | 41.85375 | 38.66519 | 37006 ft | 517 kts | 100° |
| 2026-05-01 13:27 | 41.84224 | 38.80891 | 37009 ft | 517 kts | 100° |
| 2026-05-01 13:28 | 41.83053 | 38.95284 | 37010 ft | 519 kts | 100° |
| 2026-05-01 13:29 | 41.81461 | 39.14513 | 37004 ft | 519 kts | 100° |
| 2026-05-01 13:31 | 41.79015 | 39.43318 | 37002 ft | 519 kts | 100° |
| 2026-05-01 13:32 | 41.76926 | 39.67247 | 36995 ft | 519 kts | 100° |
| 2026-05-01 13:33 | 41.74782 | 39.91223 | 36992 ft | 519 kts | 101° |
| 2026-05-01 13:34 | 41.73029 | 40.10406 | 36993 ft | 519 kts | 101° |
| 2026-05-01 13:35 | 41.71693 | 40.24798 | 36993 ft | 519 kts | 101° |
| 2026-05-01 13:36 | 41.70340 | 40.39171 | 36992 ft | 519 kts | 101° |
| 2026-05-01 13:36 | 41.68968 | 40.53545 | 36992 ft | 519 kts | 101° |
| 2026-05-01 13:37 | 41.68044 | 40.63119 | 36987 ft | 519 kts | 101° |
| 2026-05-01 13:37 | 41.67113 | 40.72687 | 36988 ft | 519 kts | 101° |
| 2026-05-01 13:38 | 41.65703 | 40.87017 | 36986 ft | 518 kts | 101° |
| 2026-05-01 13:39 | 41.64752 | 40.96570 | 37003 ft | 518 kts | 101° |
| 2026-05-01 13:39 | 41.63794 | 41.06113 | 37006 ft | 518 kts | 101° |
| 2026-05-01 13:40 | 41.62830 | 41.15642 | 37000 ft | 518 kts | 101° |
| 2026-05-01 13:40 | 41.61857 | 41.25177 | 37004 ft | 517 kts | 101° |
| 2026-05-01 13:41 | 41.60876 | 41.34704 | 37004 ft | 517 kts | 101° |
| 2026-05-01 13:41 | 41.59888 | 41.44222 | 36990 ft | 517 kts | 101° |
| 2026-05-01 13:42 | 41.58891 | 41.53748 | 36979 ft | 517 kts | 101° |
| 2026-05-01 13:42 | 41.57896 | 41.63187 | 36999 ft | 517 kts | 101° |
| 2026-05-01 13:43 | 41.56885 | 41.72691 | 37004 ft | 517 kts | 101° |
| 2026-05-01 13:43 | 41.55867 | 41.82186 | 36993 ft | 517 kts | 101° |
| 2026-05-01 13:44 | 41.54842 | 41.91684 | 36996 ft | 516 kts | 101° |
| 2026-05-01 13:44 | 41.53812 | 42.01128 | 36995 ft | 513 kts | 102° |
| 2026-05-01 13:45 | 41.52776 | 42.10547 | 36989 ft | 513 kts | 101° |
| 2026-05-01 13:45 | 41.51734 | 42.19972 | 36985 ft | 513 kts | 102° |
| 2026-05-01 13:46 | 41.50684 | 42.29396 | 36986 ft | 514 kts | 101° |
| 2026-05-01 13:46 | 41.49618 | 42.38801 | 36995 ft | 513 kts | 102° |
| 2026-05-01 13:47 | 41.48533 | 42.48211 | 36993 ft | 513 kts | 102° |
| 2026-05-01 13:47 | 41.47443 | 42.57603 | 36993 ft | 512 kts | 102° |
| 2026-05-01 13:48 | 41.46351 | 42.66989 | 36983 ft | 512 kts | 102° |
| 2026-05-01 13:48 | 41.45254 | 42.76358 | 36990 ft | 511 kts | 102° |
| 2026-05-01 13:49 | 41.44154 | 42.85682 | 36987 ft | 510 kts | 102° |
| 2026-05-01 13:49 | 41.43044 | 42.95001 | 36991 ft | 510 kts | 102° |
| 2026-05-01 13:50 | 41.42038 | 43.03401 | 36991 ft | 510 kts | 102° |
| 2026-05-01 13:50 | 41.41150 | 43.10747 | 36991 ft | 510 kts | 102° |
| 2026-05-01 13:51 | 41.40801 | 43.13629 | 36987 ft | 509 kts | 102° |
| 2026-05-01 13:51 | 41.39662 | 43.23011 | 37002 ft | 509 kts | 102° |
| 2026-05-01 13:52 | 41.38524 | 43.32315 | 36994 ft | 509 kts | 102° |
| 2026-05-01 13:52 | 41.37880 | 43.37544 | 37009 ft | 510 kts | 102° |
| 2026-05-01 13:53 | 41.36727 | 43.46855 | 37009 ft | 510 kts | 102° |
| 2026-05-01 13:53 | 41.34986 | 43.60831 | 37036 ft | 510 kts | 102° |
| 2026-05-01 13:54 | 41.33816 | 43.70142 | 37050 ft | 510 kts | 102° |
| 2026-05-01 13:54 | 41.32634 | 43.79448 | 37069 ft | 510 kts | 103° |
| 2026-05-01 13:55 | 41.31451 | 43.88711 | 37076 ft | 512 kts | 103° |
| 2026-05-01 13:55 | 41.30248 | 43.98066 | 37083 ft | 514 kts | 103° |
| 2026-05-01 13:56 | 41.29037 | 44.07439 | 37092 ft | 514 kts | 103° |
| 2026-05-01 13:56 | 41.27820 | 44.16796 | 37091 ft | 514 kts | 103° |
| 2026-05-01 13:57 | 41.26794 | 44.24637 | 37083 ft | 514 kts | 103° |
| 2026-05-01 13:57 | 41.25360 | 44.35516 | 37079 ft | 514 kts | 103° |
| 2026-05-01 13:58 | 41.24119 | 44.44869 | 37081 ft | 514 kts | 103° |
| 2026-05-01 13:58 | 41.22871 | 44.54217 | 37058 ft | 514 kts | 103° |
| 2026-05-01 13:59 | 41.21613 | 44.63566 | 37068 ft | 514 kts | 103° |
| 2026-05-01 13:59 | 41.20350 | 44.72915 | 37055 ft | 514 kts | 103° |
| 2026-05-01 14:00 | 41.19295 | 44.80680 | 37052 ft | 515 kts | 103° |
| 2026-05-01 14:00 | 41.17801 | 44.91592 | 37055 ft | 514 kts | 103° |
| 2026-05-01 14:01 | 41.16512 | 45.00933 | 37038 ft | 514 kts | 103° |
| 2026-05-01 14:01 | 41.15226 | 45.10198 | 37041 ft | 514 kts | 103° |
| 2026-05-01 14:02 | 41.13925 | 45.19513 | 37037 ft | 514 kts | 103° |
| 2026-05-01 14:02 | 41.12829 | 45.27325 | 37032 ft | 513 kts | 103° |
| 2026-05-01 14:03 | 41.11525 | 45.36557 | 37042 ft | 513 kts | 103° |
| 2026-05-01 14:03 | 41.10207 | 45.45842 | 37042 ft | 513 kts | 103° |
| 2026-05-01 14:04 | 41.08879 | 45.55136 | 37046 ft | 512 kts | 103° |
| 2026-05-01 14:04 | 41.07545 | 45.64410 | 37024 ft | 512 kts | 103° |
| 2026-05-01 14:05 | 41.06204 | 45.73687 | 37037 ft | 512 kts | 103° |
| 2026-05-01 14:05 | 41.04855 | 45.82962 | 37040 ft | 513 kts | 103° |
| 2026-05-01 14:06 | 41.03500 | 45.92223 | 37039 ft | 511 kts | 103° |
| 2026-05-01 14:06 | 41.02142 | 46.01450 | 37029 ft | 511 kts | 103° |
| 2026-05-01 14:07 | 41.00773 | 46.10695 | 37041 ft | 512 kts | 104° |
| 2026-05-01 14:08 | 40.98707 | 46.24553 | 37044 ft | 512 kts | 104° |
| 2026-05-01 14:08 | 40.97318 | 46.33799 | 37045 ft | 512 kts | 104° |
| 2026-05-01 14:09 | 40.95924 | 46.43027 | 37053 ft | 512 kts | 104° |
| 2026-05-01 14:09 | 40.94521 | 46.52266 | 37054 ft | 512 kts | 104° |
| 2026-05-01 14:10 | 40.93109 | 46.61508 | 37046 ft | 512 kts | 104° |
| 2026-05-01 14:10 | 40.91690 | 46.70743 | 37056 ft | 512 kts | 104° |
| 2026-05-01 14:11 | 40.90533 | 46.80003 | 37085 ft | 517 kts | 95° |
| 2026-05-01 14:11 | 40.91178 | 46.89470 | 37462 ft | 520 kts | 80° |
| 2026-05-01 14:11 | 40.91946 | 46.94141 | 37622 ft | 520 kts | 77° |
| 2026-05-01 14:12 | 40.92825 | 46.98783 | 37780 ft | 521 kts | 76° |
| 2026-05-01 14:12 | 40.93741 | 47.03419 | 37960 ft | 520 kts | 76° |
| 2026-05-01 14:12 | 40.94653 | 47.08045 | 38142 ft | 520 kts | 76° |
| 2026-05-01 14:12 | 40.95549 | 47.12680 | 38276 ft | 520 kts | 77° |
| 2026-05-01 14:13 | 40.96427 | 47.17327 | 38444 ft | 520 kts | 77° |
| 2026-05-01 14:13 | 40.97290 | 47.21975 | 38593 ft | 520 kts | 77° |
| 2026-05-01 14:13 | 40.98143 | 47.26630 | 38719 ft | 521 kts | 77° |
| 2026-05-01 14:13 | 40.98991 | 47.31285 | 38826 ft | 521 kts | 77° |
| 2026-05-01 14:14 | 41.00680 | 47.40610 | 38995 ft | 521 kts | 77° |
| 2026-05-01 14:14 | 41.02369 | 47.49964 | 39067 ft | 524 kts | 77° |
| 2026-05-01 14:15 | 41.04060 | 47.59372 | 39065 ft | 526 kts | 77° |
| 2026-05-01 14:15 | 41.05749 | 47.68806 | 39057 ft | 526 kts | 77° |
| 2026-05-01 14:16 | 41.07427 | 47.78221 | 39056 ft | 525 kts | 78° |
| 2026-05-01 14:16 | 41.09096 | 47.87633 | 39052 ft | 524 kts | 78° |
| 2026-05-01 14:17 | 41.10806 | 47.97026 | 39041 ft | 525 kts | 73° |
| 2026-05-01 14:17 | 41.13184 | 48.06183 | 39021 ft | 524 kts | 70° |
| 2026-05-01 14:18 | 41.15709 | 48.15260 | 39037 ft | 524 kts | 70° |
| 2026-05-01 14:18 | 41.17814 | 48.22794 | 39006 ft | 524 kts | 70° |
| 2026-05-01 14:19 | 41.20758 | 48.33411 | 38989 ft | 524 kts | 70° |
| 2026-05-01 14:19 | 41.23251 | 48.42472 | 38974 ft | 522 kts | 70° |
| 2026-05-01 14:20 | 41.26969 | 48.56046 | 38963 ft | 521 kts | 70° |
| 2026-05-01 14:21 | 41.29443 | 48.65115 | 38963 ft | 522 kts | 70° |
| 2026-05-01 14:21 | 41.31908 | 48.74183 | 38955 ft | 522 kts | 70° |
| 2026-05-01 14:22 | 41.35584 | 48.87766 | 38953 ft | 522 kts | 71° |
| 2026-05-01 14:22 | 41.38056 | 48.96929 | 38945 ft | 523 kts | 71° |
| 2026-05-01 14:23 | 41.40481 | 49.05979 | 38949 ft | 523 kts | 71° |
| 2026-05-01 14:23 | 41.42918 | 49.15108 | 38955 ft | 523 kts | 71° |
| 2026-05-01 14:24 | 41.45344 | 49.24227 | 38952 ft | 523 kts | 71° |
| 2026-05-01 14:24 | 41.47771 | 49.33375 | 38963 ft | 523 kts | 71° |
| 2026-05-01 14:25 | 41.50188 | 49.42523 | 38961 ft | 523 kts | 71° |
| 2026-05-01 14:25 | 41.52597 | 49.51673 | 38967 ft | 523 kts | 71° |
| 2026-05-01 14:26 | 41.56197 | 49.65413 | 38991 ft | 523 kts | 71° |
| 2026-05-01 14:27 | 41.58589 | 49.74586 | 38992 ft | 523 kts | 71° |
| 2026-05-01 14:27 | 41.60974 | 49.83766 | 39001 ft | 523 kts | 71° |
| 2026-05-01 14:28 | 41.64533 | 49.97533 | 39015 ft | 522 kts | 71° |
| 2026-05-01 14:28 | 41.66896 | 50.06715 | 39031 ft | 522 kts | 71° |
| 2026-05-01 14:29 | 41.69253 | 50.15908 | 39044 ft | 522 kts | 71° |
| 2026-05-01 14:30 | 41.73918 | 50.34213 | 39057 ft | 522 kts | 72° |
| 2026-05-01 14:31 | 41.77414 | 50.48023 | 39057 ft | 522 kts | 72° |
| 2026-05-01 14:31 | 41.78381 | 50.51863 | 39067 ft | 521 kts | 72° |
| 2026-05-01 14:32 | 41.80696 | 50.61071 | 39066 ft | 521 kts | 72° |
| 2026-05-01 14:32 | 41.83005 | 50.70279 | 39073 ft | 521 kts | 72° |
| 2026-05-01 14:33 | 41.85304 | 50.79490 | 39080 ft | 521 kts | 72° |
| 2026-05-01 14:33 | 41.87594 | 50.88702 | 39084 ft | 520 kts | 72° |
| 2026-05-01 14:34 | 41.89877 | 50.97919 | 39077 ft | 520 kts | 72° |
| 2026-05-01 14:34 | 41.92148 | 51.07128 | 39081 ft | 520 kts | 72° |
| 2026-05-01 14:35 | 41.94418 | 51.16369 | 39090 ft | 520 kts | 72° |
| 2026-05-01 14:35 | 41.96676 | 51.25600 | 39097 ft | 520 kts | 72° |
| 2026-05-01 14:36 | 41.98930 | 51.34845 | 39095 ft | 520 kts | 72° |
| 2026-05-01 14:36 | 42.01254 | 51.44049 | 39098 ft | 520 kts | 67° |
| 2026-05-01 14:37 | 42.04751 | 51.52537 | 39102 ft | 519 kts | 57° |
| 2026-05-01 14:37 | 42.08665 | 51.60702 | 39110 ft | 519 kts | 56° |
| 2026-05-01 14:38 | 42.12641 | 51.68836 | 39104 ft | 520 kts | 56° |
| 2026-05-01 14:38 | 42.16571 | 51.76930 | 39105 ft | 520 kts | 56° |
| 2026-05-01 14:39 | 42.20535 | 51.85160 | 39106 ft | 520 kts | 56° |
| 2026-05-01 14:39 | 42.24436 | 51.93295 | 39107 ft | 520 kts | 56° |
| 2026-05-01 14:40 | 42.28361 | 52.01503 | 39111 ft | 520 kts | 56° |
| 2026-05-01 14:40 | 42.32281 | 52.09720 | 39113 ft | 520 kts | 57° |
| 2026-05-01 14:41 | 42.36192 | 52.17942 | 39111 ft | 520 kts | 57° |
| 2026-05-01 14:41 | 42.40102 | 52.26182 | 39110 ft | 520 kts | 57° |
| 2026-05-01 14:42 | 42.44003 | 52.34427 | 39112 ft | 521 kts | 57° |
| 2026-05-01 14:42 | 42.47903 | 52.42692 | 39111 ft | 520 kts | 57° |
| 2026-05-01 14:43 | 42.51793 | 52.50960 | 39113 ft | 520 kts | 57° |
| 2026-05-01 14:43 | 42.55674 | 52.59231 | 39113 ft | 520 kts | 57° |
| 2026-05-01 14:44 | 42.59527 | 52.67466 | 39107 ft | 520 kts | 57° |
| 2026-05-01 14:44 | 42.65332 | 52.79914 | 39110 ft | 520 kts | 57° |
| 2026-05-01 14:45 | 42.71123 | 52.92385 | 39107 ft | 520 kts | 57° |
| 2026-05-01 14:46 | 42.74977 | 53.00713 | 39109 ft | 520 kts | 57° |
| 2026-05-01 14:46 | 42.80750 | 53.13233 | 39105 ft | 520 kts | 57° |
| 2026-05-01 14:47 | 42.84592 | 53.21595 | 39108 ft | 520 kts | 57° |
| 2026-05-01 14:48 | 42.90341 | 53.34150 | 39108 ft | 520 kts | 57° |
| 2026-05-01 14:48 | 42.96076 | 53.46730 | 39108 ft | 521 kts | 57° |
| 2026-05-01 14:49 | 43.01815 | 53.64670 | 39114 ft | 519 kts | 83° |
| 2026-05-01 14:50 | 43.03258 | 53.84303 | 39116 ft | 520 kts | 86° |
| 2026-05-01 14:51 | 43.04188 | 53.99012 | 39114 ft | 520 kts | 86° |
| 2026-05-01 14:52 | 43.05043 | 54.12172 | 39118 ft | 519 kts | 86° |
| 2026-05-01 14:53 | 43.05991 | 54.26919 | 39118 ft | 519 kts | 86° |
| 2026-05-01 14:53 | 43.06611 | 54.36757 | 39121 ft | 519 kts | 86° |
| 2026-05-01 14:54 | 43.07217 | 54.46524 | 39121 ft | 519 kts | 86° |
| 2026-05-01 14:54 | 43.07821 | 54.56374 | 39124 ft | 519 kts | 86° |
| 2026-05-01 14:55 | 43.08415 | 54.66215 | 39124 ft | 519 kts | 86° |
| 2026-05-01 14:55 | 43.09000 | 54.76060 | 39124 ft | 519 kts | 86° |
| 2026-05-01 14:56 | 43.09577 | 54.85899 | 39126 ft | 519 kts | 86° |
| 2026-05-01 14:56 | 43.10145 | 54.95739 | 39129 ft | 519 kts | 86° |
| 2026-05-01 14:57 | 43.10705 | 55.05582 | 39132 ft | 518 kts | 86° |
| 2026-05-01 14:57 | 43.11528 | 55.20330 | 39135 ft | 518 kts | 86° |
| 2026-05-01 14:58 | 43.12067 | 55.30173 | 39137 ft | 518 kts | 86° |
| 2026-05-01 14:58 | 43.12597 | 55.40012 | 39137 ft | 518 kts | 86° |
| 2026-05-01 14:59 | 43.13118 | 55.49846 | 39140 ft | 518 kts | 87° |
| 2026-05-01 14:59 | 43.13631 | 55.59678 | 39139 ft | 517 kts | 87° |
| 2026-05-01 15:00 | 43.14384 | 55.74412 | 39143 ft | 517 kts | 87° |
| 2026-05-01 15:01 | 43.14875 | 55.84231 | 39142 ft | 517 kts | 87° |
| 2026-05-01 15:01 | 43.15358 | 55.94057 | 39140 ft | 517 kts | 87° |
| 2026-05-01 15:02 | 43.16491 | 56.03768 | 39145 ft | 518 kts | 76° |
| 2026-05-01 15:02 | 43.18402 | 56.13284 | 39143 ft | 518 kts | 74° |
| 2026-05-01 15:03 | 43.20422 | 56.22762 | 39142 ft | 518 kts | 74° |
| 2026-05-01 15:03 | 43.22421 | 56.32176 | 39146 ft | 518 kts | 74° |
| 2026-05-01 15:04 | 43.24411 | 56.41672 | 39148 ft | 518 kts | 74° |
| 2026-05-01 15:04 | 43.26382 | 56.51168 | 39146 ft | 518 kts | 75° |
| 2026-05-01 15:05 | 43.28346 | 56.60676 | 39148 ft | 518 kts | 75° |
| 2026-05-01 15:05 | 43.30304 | 56.70196 | 39148 ft | 518 kts | 75° |
| 2026-05-01 15:06 | 43.32252 | 56.79709 | 39149 ft | 518 kts | 75° |
| 2026-05-01 15:06 | 43.34192 | 56.89231 | 39147 ft | 518 kts | 75° |
| 2026-05-01 15:07 | 43.36127 | 56.98770 | 39148 ft | 518 kts | 75° |
| 2026-05-01 15:07 | 43.38054 | 57.08314 | 39148 ft | 518 kts | 75° |
| 2026-05-01 15:08 | 43.39972 | 57.17864 | 39147 ft | 518 kts | 75° |
| 2026-05-01 15:08 | 43.41885 | 57.27428 | 39148 ft | 519 kts | 75° |
| 2026-05-01 15:09 | 43.43790 | 57.37005 | 39147 ft | 519 kts | 75° |
| 2026-05-01 15:09 | 43.45689 | 57.46591 | 39145 ft | 519 kts | 75° |
| 2026-05-01 15:10 | 43.47579 | 57.56184 | 39149 ft | 520 kts | 75° |
| 2026-05-01 15:10 | 43.50391 | 57.70541 | 39151 ft | 520 kts | 75° |
| 2026-05-01 15:11 | 43.53198 | 57.84977 | 39148 ft | 520 kts | 75° |
| 2026-05-01 15:12 | 43.55061 | 57.94615 | 39148 ft | 520 kts | 75° |
| 2026-05-01 15:12 | 43.57841 | 58.09091 | 39151 ft | 521 kts | 75° |
| 2026-05-01 15:14 | 43.62433 | 58.33246 | 39152 ft | 521 kts | 76° |
| 2026-05-01 15:14 | 43.65139 | 58.47782 | 39159 ft | 520 kts | 76° |
| 2026-05-01 15:15 | 43.68666 | 58.67151 | 39160 ft | 520 kts | 76° |
| 2026-05-01 15:16 | 43.72175 | 58.86547 | 39157 ft | 520 kts | 76° |
| 2026-05-01 15:18 | 43.76533 | 59.10822 | 39154 ft | 520 kts | 76° |
| 2026-05-01 15:19 | 43.80084 | 59.30222 | 39156 ft | 520 kts | 76° |
| 2026-05-01 15:19 | 43.82717 | 59.44794 | 39155 ft | 520 kts | 76° |
| 2026-05-01 15:20 | 43.85328 | 59.59383 | 39154 ft | 520 kts | 76° |
| 2026-05-01 15:21 | 43.87058 | 59.69111 | 39153 ft | 520 kts | 77° |
| 2026-05-01 15:21 | 43.88752 | 59.78791 | 39153 ft | 520 kts | 77° |
| 2026-05-01 15:22 | 43.91254 | 59.93421 | 39150 ft | 520 kts | 77° |
| 2026-05-01 15:22 | 43.92915 | 60.03179 | 39151 ft | 519 kts | 77° |
| 2026-05-01 15:23 | 43.94569 | 60.12930 | 39149 ft | 519 kts | 77° |
| 2026-05-01 15:23 | 43.96217 | 60.22689 | 39137 ft | 519 kts | 77° |
| 2026-05-01 15:24 | 43.97852 | 60.32431 | 39147 ft | 518 kts | 77° |
| 2026-05-01 15:24 | 43.99477 | 60.42170 | 39146 ft | 518 kts | 78° |
| 2026-05-01 15:25 | 44.01096 | 60.51927 | 39148 ft | 518 kts | 78° |
| 2026-05-01 15:25 | 44.02706 | 60.61683 | 39146 ft | 518 kts | 78° |
| 2026-05-01 15:26 | 44.04308 | 60.71445 | 39144 ft | 518 kts | 78° |
| 2026-05-01 15:26 | 44.05904 | 60.81227 | 39141 ft | 519 kts | 78° |
| 2026-05-01 15:27 | 44.07492 | 60.91020 | 39144 ft | 519 kts | 78° |
| 2026-05-01 15:28 | 44.09858 | 61.05716 | 39137 ft | 519 kts | 78° |
| 2026-05-01 15:28 | 44.11425 | 61.15520 | 39139 ft | 519 kts | 78° |
| 2026-05-01 15:29 | 44.13744 | 61.30233 | 39132 ft | 519 kts | 80° |
| 2026-05-01 15:30 | 44.14292 | 61.36672 | 39136 ft | 517 kts | 86° |
| 2026-05-01 15:31 | 44.15635 | 61.66689 | 39126 ft | 517 kts | 88° |
| 2026-05-01 15:32 | 44.16465 | 61.86687 | 39121 ft | 517 kts | 88° |
| 2026-05-01 15:34 | 44.17654 | 62.16698 | 39113 ft | 517 kts | 89° |